createdAt,value
2022-10-04T00:01:47.610Z,10.00
2022-10-04T00:04:19.138Z,9.90
2022-10-04T00:06:54.714Z,9.90
2022-10-04T00:09:27.371Z,9.80
2022-10-04T00:11:57.182Z,9.80
2022-10-04T00:14:30.917Z,9.80
2022-10-04T00:16:59.988Z,9.70
2022-10-04T00:19:40.734Z,9.60
2022-10-04T00:22:10.204Z,9.50
2022-10-04T00:24:38.276Z,9.50
2022-10-04T00:27:19.021Z,9.50
2022-10-04T00:30:21.250Z,9.40
2022-10-04T00:33:02.601Z,9.40
2022-10-04T00:35:48.697Z,9.40
2022-10-04T00:38:26.065Z,9.30
2022-10-04T00:41:07.114Z,9.40
2022-10-04T00:43:48.290Z,9.30
2022-10-04T00:46:27.688Z,9.30
2022-10-04T00:49:03.233Z,9.30
2022-10-04T00:51:43.948Z,9.30
2022-10-04T00:54:32.520Z,9.40
2022-10-04T00:57:06.179Z,9.50
2022-10-04T00:59:48.573Z,9.50
2022-10-04T01:02:26.584Z,9.50
2022-10-04T01:05:07.990Z,9.50
2022-10-04T01:08:06.237Z,9.50
2022-10-04T01:10:56.181Z,9.60
2022-10-04T01:13:40.339Z,9.60
2022-10-04T01:16:22.521Z,9.60
2022-10-04T01:18:49.865Z,9.60
2022-10-04T01:21:20.177Z,9.50
2022-10-04T01:24:15.880Z,9.60
2022-10-04T01:26:45.268Z,9.60
2022-10-04T01:29:19.033Z,9.60
2022-10-04T01:31:48.695Z,9.60
2022-10-04T01:34:21.106Z,9.60
2022-10-04T01:36:51.307Z,9.50
2022-10-04T01:39:21.379Z,9.50
2022-10-04T01:42:05.039Z,9.40
2022-10-04T01:45:05.805Z,9.40
2022-10-04T01:47:44.785Z,9.40
2022-10-04T01:50:18.526Z,9.40
2022-10-04T01:52:56.704Z,9.40
2022-10-04T01:55:28.930Z,9.50
2022-10-04T01:58:07.570Z,9.50
2022-10-04T02:00:47.459Z,9.40
2022-10-04T02:03:24.859Z,9.50
2022-10-04T02:05:57.389Z,9.50
2022-10-04T02:08:29.443Z,9.50
2022-10-04T02:10:57.718Z,9.40
2022-10-04T02:13:29.403Z,9.40
2022-10-04T02:15:58.477Z,9.40
2022-10-04T02:18:26.853Z,9.40
2022-10-04T02:20:55.119Z,9.30
2022-10-04T02:23:23.861Z,9.30
2022-10-04T02:25:51.928Z,9.40
2022-10-04T02:28:19.441Z,9.40
2022-10-04T02:31:09.912Z,9.40
2022-10-04T02:33:42.395Z,9.40
2022-10-04T02:36:10.693Z,9.40
2022-10-04T02:38:44.034Z,9.40
2022-10-04T02:41:24.700Z,9.50
2022-10-04T02:43:55.627Z,9.50
2022-10-04T02:46:28.232Z,9.50
2022-10-04T02:48:59.190Z,9.30
2022-10-04T02:51:40.966Z,9.30
2022-10-04T02:54:29.332Z,9.20
2022-10-04T02:56:57.962Z,9.10
2022-10-04T02:59:25.393Z,9.00
2022-10-04T03:01:56.093Z,8.90
2022-10-04T03:04:32.392Z,8.80
2022-10-04T03:07:06.597Z,8.80
2022-10-04T03:09:36.365Z,8.80
2022-10-04T03:12:04.894Z,8.80
2022-10-04T03:14:33.283Z,8.80
2022-10-04T03:17:04.039Z,8.80
2022-10-04T03:19:33.400Z,8.80
2022-10-04T03:22:09.149Z,8.80
2022-10-04T03:24:53.550Z,9.00
2022-10-04T03:27:25.521Z,9.00
2022-10-04T03:29:58.862Z,8.90
2022-10-04T03:32:30.338Z,8.80
2022-10-04T03:34:59.168Z,8.70
2022-10-04T03:37:29.311Z,8.80
2022-10-04T03:39:57.833Z,8.70
2022-10-04T03:42:31.298Z,8.60
2022-10-04T03:45:14.012Z,8.70
2022-10-04T03:47:45.935Z,8.60
2022-10-04T03:50:24.696Z,8.60
2022-10-04T03:52:58.774Z,8.50
2022-10-04T03:55:34.142Z,8.40
2022-10-04T03:58:02.250Z,8.40
2022-10-04T04:00:29.842Z,8.40
2022-10-04T04:03:00.642Z,8.40
2022-10-04T04:05:53.675Z,8.40
2022-10-04T04:08:38.992Z,8.30
2022-10-04T04:11:07.508Z,8.30
2022-10-04T04:13:37.493Z,8.30
2022-10-04T04:16:05.782Z,8.10
2022-10-04T04:18:35.783Z,8.10
2022-10-04T04:21:06.232Z,8.30
2022-10-04T04:23:41.432Z,8.20
2022-10-04T04:26:45.740Z,8.10
2022-10-04T04:29:33.969Z,8.10
2022-10-04T04:32:04.620Z,8.00
2022-10-04T04:34:34.652Z,8.10
2022-10-04T04:37:04.768Z,8.10
2022-10-04T04:39:41.189Z,8.20
2022-10-04T04:42:10.735Z,8.30
2022-10-04T04:44:46.380Z,8.20
2022-10-04T04:47:41.736Z,8.20
2022-10-04T04:50:16.066Z,8.20
2022-10-04T04:52:53.399Z,8.20
2022-10-04T04:55:27.474Z,8.20
2022-10-04T04:57:57.151Z,8.20
2022-10-04T05:00:30.515Z,8.10
2022-10-04T05:03:04.110Z,8.10
2022-10-04T05:05:35.824Z,8.00
2022-10-04T05:08:23.645Z,8.10
2022-10-04T05:10:50.961Z,8.00
2022-10-04T05:13:19.934Z,8.10
2022-10-04T05:15:51.262Z,8.00
2022-10-04T05:18:29.033Z,7.90
2022-10-04T05:21:02.775Z,7.90
2022-10-04T05:23:30.278Z,8.10
2022-10-04T05:26:00.245Z,8.10
2022-10-04T05:28:27.791Z,8.10
2022-10-04T05:31:00.957Z,8.20
2022-10-04T05:33:54.152Z,8.10
2022-10-04T05:36:39.645Z,8.00
2022-10-04T05:39:15.508Z,7.90
2022-10-04T05:42:16.142Z,7.90
2022-10-04T05:44:53.960Z,7.90
2022-10-04T05:47:27.743Z,7.90
2022-10-04T05:49:57.818Z,7.90
2022-10-04T05:52:30.406Z,8.00
2022-10-04T05:55:13.046Z,8.00
2022-10-04T05:58:18.208Z,7.90
2022-10-04T06:01:00.308Z,8.00
2022-10-04T06:03:40.594Z,8.00
2022-10-04T06:06:17.381Z,8.00
2022-10-04T06:09:08.642Z,8.10
2022-10-04T06:11:48.037Z,8.10
2022-10-04T06:14:34.285Z,8.10
2022-10-04T06:17:31.160Z,8.20
2022-10-04T06:20:22.840Z,8.70
2022-10-04T06:22:58.608Z,9.20
2022-10-04T06:25:31.325Z,9.20
2022-10-04T06:28:17.182Z,9.20
2022-10-04T06:31:18.473Z,9.20
2022-10-04T06:34:12.342Z,9.10
2022-10-04T06:37:05.598Z,9.10
2022-10-04T06:39:38.777Z,9.10
2022-10-04T06:42:24.445Z,9.10
2022-10-04T06:44:58.198Z,9.20
2022-10-04T06:48:09.892Z,9.40
2022-10-04T06:51:01.141Z,9.40
2022-10-04T06:53:45.194Z,9.60
2022-10-04T06:56:27.605Z,9.70
2022-10-04T06:59:13.819Z,9.80
2022-10-04T07:02:00.560Z,9.80
2022-10-04T07:05:08.152Z,9.80
2022-10-04T07:07:38.849Z,10.00
2022-10-04T07:10:18.365Z,10.00
2022-10-04T07:13:12.175Z,9.90
2022-10-04T07:16:16.860Z,10.00
2022-10-04T07:19:08.297Z,9.90
2022-10-04T07:21:49.030Z,10.00
2022-10-04T07:24:26.340Z,10.10
2022-10-04T07:26:55.845Z,10.20
2022-10-04T07:29:38.736Z,10.40
2022-10-04T07:32:21.176Z,10.50
2022-10-04T07:35:16.747Z,10.60
2022-10-04T07:38:02.421Z,10.70
2022-10-04T07:40:41.320Z,10.80
2022-10-04T07:43:22.215Z,10.90
2022-10-04T07:45:51.508Z,11.10
2022-10-04T07:48:25.094Z,11.20
2022-10-04T07:50:58.630Z,11.20
2022-10-04T07:53:31.401Z,11.10
2022-10-04T07:56:21.073Z,11.00
2022-10-04T07:59:09.505Z,11.10
2022-10-04T08:01:47.946Z,11.40
2022-10-04T08:04:37.458Z,12.10
2022-10-04T08:07:21.670Z,12.70
2022-10-04T08:10:14.151Z,13.90
2022-10-04T08:12:59.849Z,15.80
2022-10-04T08:15:36.057Z,17.30
2022-10-04T08:18:20.593Z,18.50
2022-10-04T08:20:57.484Z,19.00
2022-10-04T08:23:43.487Z,19.70
2022-10-04T08:26:29.054Z,21.00
2022-10-04T08:29:43.625Z,22.50
2022-10-04T08:32:48.415Z,23.90
2022-10-04T08:35:16.435Z,24.50
2022-10-04T08:38:03.081Z,24.80
2022-10-04T08:40:54.368Z,25.60
2022-10-04T08:43:25.571Z,25.60
2022-10-04T08:45:56.262Z,24.20
2022-10-04T08:48:51.740Z,24.80
2022-10-04T08:51:31.375Z,25.00
2022-10-04T08:54:25.932Z,25.00
2022-10-04T08:57:16.050Z,25.70
2022-10-04T09:00:04.144Z,26.20
2022-10-04T09:02:49.744Z,27.10
2022-10-04T09:05:39.014Z,27.60
2022-10-04T09:08:29.732Z,27.60
2022-10-04T09:11:21.157Z,27.70
2022-10-04T09:13:53.878Z,27.90
2022-10-04T09:16:43.075Z,27.10
2022-10-04T09:19:39.777Z,27.20
2022-10-04T09:22:19.574Z,28.00
2022-10-04T09:25:01.987Z,27.00
2022-10-04T09:27:54.929Z,27.00
2022-10-04T09:30:33.077Z,27.50
2022-10-04T09:33:24.025Z,28.20
2022-10-04T09:36:05.940Z,27.70
2022-10-04T09:39:30.901Z,27.40
2022-10-04T09:42:41.257Z,28.10
2022-10-04T09:45:39.589Z,28.40
2022-10-04T09:48:39.919Z,28.50
2022-10-04T09:51:49.178Z,29.30
2022-10-04T09:54:19.976Z,30.00
2022-10-04T09:57:30.261Z,28.50
2022-10-04T09:59:57.895Z,28.20
2022-10-04T10:02:47.163Z,28.40
2022-10-04T10:05:33.449Z,29.70
2022-10-04T10:08:28.000Z,31.00
2022-10-04T10:11:24.927Z,29.90
2022-10-04T10:14:38.020Z,30.30
2022-10-04T10:17:40.046Z,29.30
2022-10-04T10:20:48.845Z,29.50
2022-10-04T10:23:46.021Z,29.50
2022-10-04T10:26:36.033Z,28.90
2022-10-04T10:29:15.810Z,28.30
2022-10-04T10:32:09.475Z,28.50
2022-10-04T10:34:42.985Z,27.70
2022-10-04T10:37:44.167Z,26.80
2022-10-04T10:40:30.105Z,23.80
2022-10-04T10:43:06.693Z,21.10
2022-10-04T10:46:04.809Z,20.20
2022-10-04T10:49:02.596Z,19.60
2022-10-04T10:51:30.812Z,19.40
2022-10-04T10:54:09.818Z,19.30
2022-10-04T10:56:49.045Z,19.30
2022-10-04T10:59:55.122Z,18.90
2022-10-04T11:02:48.723Z,18.70
2022-10-04T11:05:47.455Z,18.60
2022-10-04T11:08:18.709Z,18.50
2022-10-04T11:11:03.373Z,18.60
2022-10-04T11:14:11.813Z,18.60
2022-10-04T11:17:03.951Z,18.60
2022-10-04T11:19:43.356Z,18.60
2022-10-04T11:22:49.311Z,18.50
2022-10-04T11:25:39.759Z,18.40
2022-10-04T11:28:16.787Z,18.50
2022-10-04T11:31:01.193Z,18.50
2022-10-04T11:33:48.311Z,18.40
2022-10-04T11:36:37.574Z,18.40
2022-10-04T11:39:33.674Z,18.20
2022-10-04T11:42:14.066Z,18.30
2022-10-04T11:44:41.342Z,18.20
2022-10-04T11:47:47.720Z,18.30
2022-10-04T11:50:24.193Z,18.40
2022-10-04T11:53:23.747Z,18.30
2022-10-04T11:56:04.307Z,18.20
2022-10-04T11:59:12.977Z,18.30
2022-10-04T12:01:59.774Z,18.40
2022-10-04T12:04:54.472Z,18.40
2022-10-04T12:07:50.068Z,18.50
2022-10-04T12:10:26.749Z,18.50
2022-10-04T12:13:12.635Z,18.60
2022-10-04T12:16:12.179Z,18.40
2022-10-04T12:19:13.450Z,18.30
2022-10-04T12:21:59.026Z,18.20
2022-10-04T12:24:27.015Z,18.20
2022-10-04T12:27:30.820Z,18.20
2022-10-04T12:30:16.775Z,18.20
2022-10-04T12:33:03.308Z,18.30
2022-10-04T12:35:30.636Z,18.40
2022-10-04T12:39:08.596Z,18.50
2022-10-04T12:42:05.100Z,18.30
2022-10-04T12:44:49.623Z,18.20
2022-10-04T12:47:31.812Z,18.40
2022-10-04T12:50:19.799Z,18.30
2022-10-04T12:53:11.841Z,18.40
2022-10-04T12:56:04.444Z,18.50
2022-10-04T12:58:40.812Z,18.60
2022-10-04T13:01:32.555Z,18.50
2022-10-04T13:04:21.157Z,18.50
2022-10-04T13:07:36.772Z,18.50
2022-10-04T13:10:30.432Z,18.50
2022-10-04T13:13:23.287Z,18.60
2022-10-04T13:19:24.857Z,18.60
2022-10-04T13:22:27.193Z,18.60
2022-10-04T13:25:42.429Z,18.60
2022-10-04T13:28:24.907Z,18.60
2022-10-04T13:31:07.301Z,18.50
2022-10-04T13:33:51.155Z,18.50
2022-10-04T13:36:49.084Z,18.40
2022-10-04T13:39:16.363Z,18.60
2022-10-04T13:42:11.445Z,18.60
2022-10-04T13:45:00.345Z,18.60
2022-10-04T13:47:46.191Z,18.60
2022-10-04T13:50:34.926Z,18.50
2022-10-04T13:53:55.593Z,18.50
2022-10-04T13:56:39.941Z,18.50
2022-10-04T13:59:12.034Z,18.40
2022-10-04T14:02:10.358Z,18.40
2022-10-04T14:05:16.363Z,18.40
2022-10-04T14:08:11.949Z,18.50
2022-10-04T14:10:48.264Z,18.40
2022-10-04T14:13:34.271Z,18.30
2022-10-04T14:16:10.593Z,18.30
2022-10-04T14:19:13.293Z,18.10
2022-10-04T14:21:59.968Z,18.20
2022-10-04T14:24:46.634Z,18.20
2022-10-04T14:27:43.402Z,18.30
2022-10-04T14:30:18.497Z,18.20
2022-10-04T14:32:45.854Z,18.30
2022-10-04T14:35:17.023Z,18.30
2022-10-04T14:38:06.109Z,18.30
2022-10-04T14:41:32.977Z,18.20
2022-10-04T14:44:25.338Z,18.10
2022-10-04T14:47:07.573Z,18.20
2022-10-04T14:50:00.795Z,18.20
2022-10-04T14:52:46.693Z,18.20
2022-10-04T14:55:24.000Z,18.30
2022-10-04T14:58:03.776Z,18.30
2022-10-04T15:00:57.090Z,18.30
2022-10-04T15:03:38.932Z,18.30
2022-10-04T15:06:18.858Z,18.30
2022-10-04T15:08:55.868Z,18.30
2022-10-04T15:12:25.394Z,18.20
2022-10-04T15:15:05.259Z,18.00
2022-10-04T15:17:37.727Z,17.80
2022-10-04T15:20:22.926Z,17.60
2022-10-04T15:22:55.647Z,17.60
2022-10-04T15:25:41.297Z,17.60
2022-10-04T15:28:14.583Z,17.50
2022-10-04T15:30:54.101Z,17.50
2022-10-04T15:33:27.400Z,17.60
2022-10-04T15:35:57.664Z,17.60
2022-10-04T15:38:32.842Z,17.60
2022-10-04T15:41:06.130Z,17.50
2022-10-04T15:43:42.539Z,17.50
2022-10-04T15:46:28.809Z,17.60
2022-10-04T15:48:58.888Z,17.50
2022-10-04T15:51:59.849Z,17.40
2022-10-04T15:54:33.346Z,17.40
2022-10-04T15:57:17.358Z,17.30
2022-10-04T15:59:53.413Z,17.30
2022-10-04T16:02:55.577Z,17.20
2022-10-04T16:05:30.957Z,17.10
2022-10-04T16:08:10.974Z,17.00
2022-10-04T16:10:58.565Z,16.70
2022-10-04T16:13:40.078Z,16.60
2022-10-04T16:16:16.595Z,16.40
2022-10-04T16:18:53.301Z,16.10
2022-10-04T16:21:54.443Z,15.90
2022-10-04T16:24:21.773Z,15.80
2022-10-04T16:26:51.751Z,15.70
2022-10-04T16:30:21.782Z,15.70
2022-10-04T16:32:59.969Z,15.70
2022-10-04T16:35:45.430Z,15.70
2022-10-04T16:38:12.666Z,15.60
2022-10-04T16:40:52.111Z,15.60
2022-10-04T16:43:19.425Z,15.50
2022-10-04T16:46:11.169Z,15.40
2022-10-04T16:48:41.536Z,15.10
2022-10-04T16:51:17.840Z,14.90
2022-10-04T16:54:00.140Z,14.70
2022-10-04T16:56:34.652Z,14.40
2022-10-04T16:59:11.713Z,14.40
2022-10-04T17:02:33.989Z,14.40
2022-10-04T17:05:22.651Z,14.30
2022-10-04T17:08:12.608Z,14.10
2022-10-04T17:10:48.904Z,13.80
2022-10-04T17:13:19.269Z,13.60
2022-10-04T17:16:06.755Z,13.40
2022-10-04T17:19:02.267Z,13.30
2022-10-04T17:22:04.176Z,13.10
2022-10-04T17:24:46.597Z,13.00
2022-10-04T17:27:50.182Z,12.90
2022-10-04T17:30:26.892Z,12.90
2022-10-04T17:33:06.204Z,12.80
2022-10-04T17:36:10.946Z,12.70
2022-10-04T17:39:06.100Z,12.60
2022-10-04T17:41:54.497Z,12.50
2022-10-04T17:44:56.880Z,12.40
2022-10-04T17:48:29.562Z,12.30
2022-10-04T17:51:23.368Z,12.30
2022-10-04T17:54:38.246Z,12.20
2022-10-04T17:57:05.509Z,12.10
2022-10-04T17:59:45.905Z,12.00
2022-10-04T18:02:25.462Z,11.90
2022-10-04T18:05:08.282Z,11.80
2022-10-04T18:07:44.445Z,11.70
2022-10-04T18:10:31.488Z,11.70
2022-10-04T18:13:05.482Z,11.60
2022-10-04T18:15:41.436Z,11.60
2022-10-04T18:18:22.921Z,11.60
2022-10-04T18:21:19.137Z,11.50
2022-10-04T18:24:21.927Z,11.50
2022-10-04T18:27:00.684Z,11.50
2022-10-04T18:29:43.234Z,11.50
2022-10-04T18:32:44.000Z,11.50
2022-10-04T18:35:50.022Z,11.50
2022-10-04T18:38:31.313Z,11.50
2022-10-04T18:40:59.598Z,11.50
2022-10-04T18:43:30.359Z,11.40
2022-10-04T18:46:04.920Z,11.40
2022-10-04T18:48:54.381Z,11.40
2022-10-04T18:51:37.564Z,11.30
2022-10-04T18:54:09.801Z,11.40
2022-10-04T18:56:54.898Z,11.60
2022-10-04T18:59:52.847Z,11.70
2022-10-04T19:02:35.354Z,11.90
2022-10-04T19:05:41.091Z,12.10
2022-10-04T19:08:38.410Z,12.10
2022-10-04T19:11:08.142Z,12.10
2022-10-04T19:13:50.135Z,12.20
2022-10-04T19:16:45.279Z,12.10
2022-10-04T19:19:41.890Z,12.10
2022-10-04T19:22:27.863Z,12.10
2022-10-04T19:25:13.257Z,12.00
2022-10-04T19:27:48.959Z,11.90
2022-10-04T19:30:25.797Z,11.80
2022-10-04T19:33:13.805Z,11.60
2022-10-04T19:35:56.435Z,11.60
2022-10-04T19:38:26.576Z,11.50
2022-10-04T19:41:13.353Z,11.40
2022-10-04T19:44:11.950Z,11.40
2022-10-04T19:46:44.046Z,11.30
2022-10-04T19:49:31.911Z,11.20
2022-10-04T19:52:27.819Z,11.10
2022-10-04T19:55:17.423Z,10.90
2022-10-04T19:57:58.492Z,10.80
2022-10-04T20:00:25.810Z,10.80
2022-10-04T20:02:53.481Z,10.70
2022-10-04T20:05:24.894Z,10.60
2022-10-04T20:07:57.730Z,10.50
2022-10-04T20:10:33.749Z,10.50
2022-10-04T20:13:23.386Z,10.40
2022-10-04T20:15:53.081Z,10.40
2022-10-04T20:18:32.364Z,10.40
2022-10-04T20:21:00.142Z,10.40
2022-10-04T20:23:47.672Z,10.50
2022-10-04T20:27:04.319Z,10.40
2022-10-04T20:29:37.690Z,10.50
2022-10-04T20:32:07.374Z,10.50
2022-10-04T20:34:37.706Z,10.60
2022-10-04T20:37:08.132Z,10.80
2022-10-04T20:39:41.492Z,10.90
2022-10-04T20:42:26.164Z,10.90
2022-10-04T20:45:10.017Z,10.90
2022-10-04T20:47:50.847Z,11.00
2022-10-04T20:50:38.062Z,11.00
2022-10-04T20:53:20.985Z,10.90
2022-10-04T20:55:49.519Z,10.90
2022-10-04T20:58:35.526Z,10.90
2022-10-04T21:01:25.280Z,10.90
2022-10-04T21:03:52.607Z,10.80
2022-10-04T21:06:19.926Z,10.80
2022-10-04T21:08:47.458Z,10.60
2022-10-04T21:11:21.932Z,10.60
2022-10-04T21:13:49.152Z,10.60
2022-10-04T21:16:38.197Z,10.60
2022-10-04T21:19:33.690Z,10.60
2022-10-04T21:22:30.176Z,10.80
2022-10-04T21:24:58.553Z,10.90
2022-10-04T21:27:37.382Z,11.00
2022-10-04T21:30:14.919Z,11.00
2022-10-04T21:32:42.338Z,11.00
2022-10-04T21:35:09.946Z,11.00
2022-10-04T21:37:37.350Z,11.10
2022-10-04T21:40:06.506Z,11.20
2022-10-04T21:42:33.863Z,11.20
2022-10-04T21:45:01.173Z,11.10
2022-10-04T21:47:28.374Z,11.00
2022-10-04T21:49:55.632Z,10.90
2022-10-04T21:52:22.978Z,10.90
2022-10-04T21:54:50.273Z,11.00
2022-10-04T21:57:17.621Z,11.10
2022-10-04T21:59:44.853Z,11.10
2022-10-04T22:02:12.192Z,11.10
2022-10-04T22:04:40.059Z,11.10
2022-10-04T22:07:07.386Z,11.10
2022-10-04T22:09:35.955Z,11.10
2022-10-04T22:12:03.201Z,11.00
2022-10-04T22:14:30.470Z,11.00
2022-10-04T22:16:57.778Z,11.10
2022-10-04T22:19:25.118Z,11.00
2022-10-04T22:21:52.423Z,10.90
2022-10-04T22:24:20.769Z,10.80
2022-10-04T22:26:48.993Z,10.80
2022-10-04T22:29:18.024Z,11.00
2022-10-04T22:31:50.962Z,10.90
2022-10-04T22:34:22.555Z,11.00
2022-10-04T22:36:51.972Z,11.00
2022-10-04T22:39:20.532Z,11.10
2022-10-04T22:41:56.308Z,11.00
2022-10-04T22:44:35.470Z,11.10
2022-10-04T22:47:04.712Z,11.10
2022-10-04T22:49:37.383Z,11.10
2022-10-04T22:52:15.008Z,11.10
2022-10-04T22:54:47.856Z,11.20
2022-10-04T22:57:17.671Z,11.20
2022-10-04T22:59:47.725Z,11.20
2022-10-04T23:02:17.365Z,11.20
2022-10-04T23:04:49.914Z,11.10
2022-10-04T23:07:17.865Z,11.10
2022-10-04T23:09:45.509Z,11.20
2022-10-04T23:12:13.293Z,11.20
2022-10-04T23:14:41.094Z,11.20
2022-10-04T23:17:28.747Z,11.30
2022-10-04T23:20:06.229Z,11.50
2022-10-04T23:22:33.498Z,11.60
2022-10-04T23:25:01.101Z,11.60
2022-10-04T23:27:28.504Z,11.80
2022-10-04T23:30:02.340Z,11.80
2022-10-04T23:32:31.763Z,12.00
2022-10-04T23:35:01.597Z,12.10
2022-10-04T23:37:32.132Z,12.20
2022-10-04T23:39:59.447Z,12.30
2022-10-04T23:42:30.203Z,12.40
2022-10-04T23:44:59.257Z,12.50
2022-10-04T23:47:35.437Z,12.50
2022-10-04T23:50:17.399Z,12.60
2022-10-04T23:52:45.200Z,12.60
2022-10-04T23:55:24.177Z,12.50
2022-10-04T23:57:51.503Z,12.50
